sensor_id;sensor_type;location;lat;lon;timestamp;pressure;altitude;pressure_sealevel;temperature;humidity
54948;BME280;41113;41.882;12.530;2023-02-04T00:00:47;101952.84;;;7.57;100.00
54948;BME280;41113;41.882;12.530;2023-02-04T00:03:13;101936.97;;;7.54;100.00
54948;BME280;41113;41.882;12.530;2023-02-04T00:05:39;101928.25;;;7.51;100.00
54948;BME280;41113;41.882;12.530;2023-02-04T00:08:04;101935.41;;;7.50;100.00
54948;BME280;41113;41.882;12.530;2023-02-04T00:10:30;101942.66;;;7.48;100.00
54948;BME280;41113;41.882;12.530;2023-02-04T00:12:55;101942.81;;;7.45;100.00
54948;BME280;41113;41.882;12.530;2023-02-04T00:15:20;101938.19;;;7.48;100.00
54948;BME280;41113;41.882;12.530;2023-02-04T00:17:46;101938.88;;;7.52;100.00
54948;BME280;41113;41.882;12.530;2023-02-04T00:20:12;101937.81;;;7.39;100.00
54948;BME280;41113;41.882;12.530;2023-02-04T00:22:37;101932.81;;;7.33;100.00
54948;BME280;41113;41.882;12.530;2023-02-04T00:25:03;101925.75;;;7.32;100.00
54948;BME280;41113;41.882;12.530;2023-02-04T00:27:28;101917.13;;;7.27;100.00
54948;BME280;41113;41.882;12.530;2023-02-04T00:29:57;101918.41;;;7.20;100.00
54948;BME280;41113;41.882;12.530;2023-02-04T00:32:22;101894.97;;;7.25;100.00
54948;BME280;41113;41.882;12.530;2023-02-04T00:34:48;101890.22;;;7.30;100.00
54948;BME280;41113;41.882;12.530;2023-02-04T00:37:14;101904.03;;;7.22;100.00
54948;BME280;41113;41.882;12.530;2023-02-04T00:39:39;101896.25;;;7.17;100.00
54948;BME280;41113;41.882;12.530;2023-02-04T00:42:05;101899.03;;;7.16;100.00
54948;BME280;41113;41.882;12.530;2023-02-04T00:44:30;101888.66;;;7.10;100.00
54948;BME280;41113;41.882;12.530;2023-02-04T00:46:56;101898.81;;;7.03;100.00
54948;BME280;41113;41.882;12.530;2023-02-04T00:49:21;101901.75;;;6.99;100.00
54948;BME280;41113;41.882;12.530;2023-02-04T00:51:47;101900.09;;;6.96;100.00
54948;BME280;41113;41.882;12.530;2023-02-04T00:54:13;101895.53;;;6.98;100.00
54948;BME280;41113;41.882;12.530;2023-02-04T00:56:40;101890.81;;;7.03;100.00
54948;BME280;41113;41.882;12.530;2023-02-04T00:59:06;101886.22;;;7.05;100.00
54948;BME280;41113;41.882;12.530;2023-02-04T01:01:32;101885.38;;;7.05;100.00
54948;BME280;41113;41.882;12.530;2023-02-04T01:03:58;101884.84;;;6.98;100.00
54948;BME280;41113;41.882;12.530;2023-02-04T01:06:23;101873.06;;;7.02;100.00
54948;BME280;41113;41.882;12.530;2023-02-04T01:08:49;101872.09;;;7.03;100.00
54948;BME280;41113;41.882;12.530;2023-02-04T01:11:14;101868.47;;;7.04;100.00
54948;BME280;41113;41.882;12.530;2023-02-04T01:13:40;101882.28;;;7.12;100.00
54948;BME280;41113;41.882;12.530;2023-02-04T01:16:05;101880.38;;;7.14;100.00
54948;BME280;41113;41.882;12.530;2023-02-04T01:18:30;101876.63;;;7.18;100.00
54948;BME280;41113;41.882;12.530;2023-02-04T01:20:56;101864.34;;;7.14;100.00
54948;BME280;41113;41.882;12.530;2023-02-04T01:23:22;101871.44;;;7.15;100.00
54948;BME280;41113;41.882;12.530;2023-02-04T01:25:47;101875.47;;;7.07;100.00
54948;BME280;41113;41.882;12.530;2023-02-04T01:28:13;101880.28;;;7.00;100.00
54948;BME280;41113;41.882;12.530;2023-02-04T01:30:38;101883.91;;;6.99;100.00
54948;BME280;41113;41.882;12.530;2023-02-04T01:33:04;101889.84;;;7.04;100.00
54948;BME280;41113;41.882;12.530;2023-02-04T01:35:29;101885.72;;;7.14;100.00
54948;BME280;41113;41.882;12.530;2023-02-04T01:37:55;101876.53;;;7.20;100.00
54948;BME280;41113;41.882;12.530;2023-02-04T01:40:20;101869.38;;;7.21;100.00
54948;BME280;41113;41.882;12.530;2023-02-04T01:42:46;101862.91;;;7.25;100.00
54948;BME280;41113;41.882;12.530;2023-02-04T01:45:11;101844.03;;;7.28;100.00
54948;BME280;41113;41.882;12.530;2023-02-04T01:47:37;101843.84;;;7.31;100.00
54948;BME280;41113;41.882;12.530;2023-02-04T01:50:03;101842.13;;;7.30;100.00
54948;BME280;41113;41.882;12.530;2023-02-04T01:52:33;101844.03;;;7.28;99.93
54948;BME280;41113;41.882;12.530;2023-02-04T01:54:59;101844.38;;;7.22;99.71
54948;BME280;41113;41.882;12.530;2023-02-04T01:57:25;101856.09;;;7.19;99.88
54948;BME280;41113;41.882;12.530;2023-02-04T01:59:53;101847.13;;;7.20;99.89
54948;BME280;41113;41.882;12.530;2023-02-04T02:05:09;101831.78;;;7.24;99.50
54948;BME280;41113;41.882;12.530;2023-02-04T02:07:34;101831.72;;;7.25;99.48
54948;BME280;41113;41.882;12.530;2023-02-04T02:10:01;101820.75;;;7.30;99.36
54948;BME280;41113;41.882;12.530;2023-02-04T02:12:27;101819.19;;;7.10;98.74
54948;BME280;41113;41.882;12.530;2023-02-04T02:14:52;101823.44;;;6.98;99.74
54948;BME280;41113;41.882;12.530;2023-02-04T02:17:17;101819.56;;;6.88;100.00
54948;BME280;41113;41.882;12.530;2023-02-04T02:19:43;101815.72;;;6.76;100.00
54948;BME280;41113;41.882;12.530;2023-02-04T02:22:31;101805.03;;;6.61;100.00
54948;BME280;41113;41.882;12.530;2023-02-04T02:24:59;101805.69;;;6.48;100.00
54948;BME280;41113;41.882;12.530;2023-02-04T02:27:24;101815.13;;;6.38;100.00
54948;BME280;41113;41.882;12.530;2023-02-04T02:29:50;101808.06;;;6.37;100.00
54948;BME280;41113;41.882;12.530;2023-02-04T02:32:16;101818.75;;;6.37;100.00
54948;BME280;41113;41.882;12.530;2023-02-04T02:34:42;101817.19;;;6.33;100.00
54948;BME280;41113;41.882;12.530;2023-02-04T02:37:09;101808.25;;;6.34;100.00
54948;BME280;41113;41.882;12.530;2023-02-04T02:39:38;101803.84;;;6.33;100.00
54948;BME280;41113;41.882;12.530;2023-02-04T02:42:05;101807.47;;;6.32;100.00
54948;BME280;41113;41.882;12.530;2023-02-04T02:44:32;101799.91;;;6.40;100.00
54948;BME280;41113;41.882;12.530;2023-02-04T02:46:58;101790.91;;;6.59;100.00
54948;BME280;41113;41.882;12.530;2023-02-04T02:49:31;101783.00;;;6.73;100.00
54948;BME280;41113;41.882;12.530;2023-02-04T02:51:57;101772.75;;;6.81;100.00
54948;BME280;41113;41.882;12.530;2023-02-04T02:54:26;101775.28;;;6.84;100.00
54948;BME280;41113;41.882;12.530;2023-02-04T02:56:53;101769.22;;;6.80;100.00
54948;BME280;41113;41.882;12.530;2023-02-04T02:59:19;101779.03;;;6.64;100.00
54948;BME280;41113;41.882;12.530;2023-02-04T03:01:47;101779.72;;;6.68;100.00
54948;BME280;41113;41.882;12.530;2023-02-04T03:04:16;101786.19;;;6.64;100.00
54948;BME280;41113;41.882;12.530;2023-02-04T03:06:42;101791.78;;;6.75;100.00
54948;BME280;41113;41.882;12.530;2023-02-04T03:09:08;101796.44;;;6.55;100.00
54948;BME280;41113;41.882;12.530;2023-02-04T03:11:34;101803.28;;;6.44;100.00
54948;BME280;41113;41.882;12.530;2023-02-04T03:14:00;101801.28;;;6.47;100.00
54948;BME280;41113;41.882;12.530;2023-02-04T03:16:28;101801.72;;;6.40;100.00
54948;BME280;41113;41.882;12.530;2023-02-04T03:18:58;101795.19;;;6.45;100.00
54948;BME280;41113;41.882;12.530;2023-02-04T03:21:23;101795.19;;;6.45;100.00
54948;BME280;41113;41.882;12.530;2023-02-04T03:23:49;101788.47;;;6.38;100.00
54948;BME280;41113;41.882;12.530;2023-02-04T03:26:16;101785.84;;;6.21;100.00
54948;BME280;41113;41.882;12.530;2023-02-04T03:28:41;101786.63;;;6.06;100.00
54948;BME280;41113;41.882;12.530;2023-02-04T03:31:07;101787.81;;;6.00;100.00
54948;BME280;41113;41.882;12.530;2023-02-04T03:33:33;101785.56;;;5.92;100.00
54948;BME280;41113;41.882;12.530;2023-02-04T03:36:00;101780.22;;;5.92;100.00
54948;BME280;41113;41.882;12.530;2023-02-04T03:38:26;101782.03;;;5.92;100.00
54948;BME280;41113;41.882;12.530;2023-02-04T03:40:52;101767.84;;;5.91;100.00
54948;BME280;41113;41.882;12.530;2023-02-04T03:43:17;101773.38;;;5.87;100.00
54948;BME280;41113;41.882;12.530;2023-02-04T03:45:43;101770.34;;;5.95;100.00
54948;BME280;41113;41.882;12.530;2023-02-04T03:48:08;101763.91;;;5.99;100.00
54948;BME280;41113;41.882;12.530;2023-02-04T03:50:34;101762.63;;;6.06;100.00
54948;BME280;41113;41.882;12.530;2023-02-04T03:52:59;101755.56;;;6.22;100.00
54948;BME280;41113;41.882;12.530;2023-02-04T03:55:25;101749.88;;;6.28;100.00
54948;BME280;41113;41.882;12.530;2023-02-04T03:57:51;101738.88;;;6.34;100.00
54948;BME280;41113;41.882;12.530;2023-02-04T04:00:17;101728.81;;;6.39;100.00
54948;BME280;41113;41.882;12.530;2023-02-04T04:02:42;101735.09;;;6.38;100.00
54948;BME280;41113;41.882;12.530;2023-02-04T04:05:09;101735.59;;;6.29;100.00
54948;BME280;41113;41.882;12.530;2023-02-04T04:07:35;101732.66;;;6.18;100.00
54948;BME280;41113;41.882;12.530;2023-02-04T04:10:01;101743.72;;;6.10;100.00
54948;BME280;41113;41.882;12.530;2023-02-04T04:12:27;101753.53;;;6.10;100.00
54948;BME280;41113;41.882;12.530;2023-02-04T04:14:52;101741.22;;;6.07;100.00
54948;BME280;41113;41.882;12.530;2023-02-04T04:17:18;101739.81;;;6.00;100.00
54948;BME280;41113;41.882;12.530;2023-02-04T04:19:43;101731.28;;;5.93;100.00
54948;BME280;41113;41.882;12.530;2023-02-04T04:22:09;101724.41;;;5.89;100.00
54948;BME280;41113;41.882;12.530;2023-02-04T04:24:35;101719.97;;;5.88;100.00
54948;BME280;41113;41.882;12.530;2023-02-04T04:27:01;101714.19;;;5.98;100.00
54948;BME280;41113;41.882;12.530;2023-02-04T04:29:27;101708.53;;;6.04;100.00
54948;BME280;41113;41.882;12.530;2023-02-04T04:31:53;101717.81;;;5.97;100.00
54948;BME280;41113;41.882;12.530;2023-02-04T04:34:18;101710.25;;;6.05;100.00
54948;BME280;41113;41.882;12.530;2023-02-04T04:36:44;101713.19;;;6.16;100.00
54948;BME280;41113;41.882;12.530;2023-02-04T04:39:12;101723.22;;;6.28;100.00
54948;BME280;41113;41.882;12.530;2023-02-04T04:41:37;101705.47;;;6.27;100.00
54948;BME280;41113;41.882;12.530;2023-02-04T04:44:02;101711.69;;;6.28;100.00
54948;BME280;41113;41.882;12.530;2023-02-04T04:46:28;101698.84;;;6.34;100.00
54948;BME280;41113;41.882;12.530;2023-02-04T04:48:53;101698.59;;;6.39;100.00
54948;BME280;41113;41.882;12.530;2023-02-04T04:51:18;101692.06;;;6.44;100.00
54948;BME280;41113;41.882;12.530;2023-02-04T04:53:44;101691.75;;;6.50;100.00
54948;BME280;41113;41.882;12.530;2023-02-04T04:56:09;101687.97;;;6.54;100.00
54948;BME280;41113;41.882;12.530;2023-02-04T04:58:35;101691.41;;;6.57;99.75
54948;BME280;41113;41.882;12.530;2023-02-04T05:01:00;101694.16;;;6.55;99.05
54948;BME280;41113;41.882;12.530;2023-02-04T05:03:26;101682.63;;;6.54;98.78
54948;BME280;41113;41.882;12.530;2023-02-04T05:05:52;101680.72;;;6.57;98.95
54948;BME280;41113;41.882;12.530;2023-02-04T05:08:17;101678.06;;;6.57;98.75
54948;BME280;41113;41.882;12.530;2023-02-04T05:10:45;101676.94;;;6.61;99.06
54948;BME280;41113;41.882;12.530;2023-02-04T05:13:11;101674.84;;;6.66;98.77
54948;BME280;41113;41.882;12.530;2023-02-04T05:15:37;101671.09;;;6.54;98.33
54948;BME280;41113;41.882;12.530;2023-02-04T05:18:03;101654.69;;;6.44;97.96
54948;BME280;41113;41.882;12.530;2023-02-04T05:20:31;101655.75;;;6.42;98.61
54948;BME280;41113;41.882;12.530;2023-02-04T05:22:57;101659.69;;;6.35;98.31
54948;BME280;41113;41.882;12.530;2023-02-04T05:25:26;101667.63;;;6.36;98.71
54948;BME280;41113;41.882;12.530;2023-02-04T05:27:52;101664.88;;;6.38;99.31
54948;BME280;41113;41.882;12.530;2023-02-04T05:30:17;101661.00;;;6.43;99.13
54948;BME280;41113;41.882;12.530;2023-02-04T05:32:43;101663.25;;;6.51;99.28
54948;BME280;41113;41.882;12.530;2023-02-04T05:35:09;101683.38;;;6.57;99.13
54948;BME280;41113;41.882;12.530;2023-02-04T05:37:34;101680.91;;;6.53;98.38
54948;BME280;41113;41.882;12.530;2023-02-04T05:39:59;101695.75;;;6.42;98.72
54948;BME280;41113;41.882;12.530;2023-02-04T05:42:25;101696.88;;;6.22;99.46
54948;BME280;41113;41.882;12.530;2023-02-04T05:44:50;101688.75;;;6.08;100.00
54948;BME280;41113;41.882;12.530;2023-02-04T05:47:16;101679.47;;;6.15;100.00
54948;BME280;41113;41.882;12.530;2023-02-04T05:49:41;101684.00;;;6.13;100.00
54948;BME280;41113;41.882;12.530;2023-02-04T05:52:06;101677.13;;;6.09;100.00
54948;BME280;41113;41.882;12.530;2023-02-04T05:54:32;101676.00;;;6.13;100.00
54948;BME280;41113;41.882;12.530;2023-02-04T05:56:58;101669.63;;;6.00;100.00
54948;BME280;41113;41.882;12.530;2023-02-04T05:59:23;101667.75;;;6.02;100.00
54948;BME280;41113;41.882;12.530;2023-02-04T06:01:49;101666.66;;;5.88;100.00
54948;BME280;41113;41.882;12.530;2023-02-04T06:04:15;101664.03;;;5.71;100.00
54948;BME280;41113;41.882;12.530;2023-02-04T06:06:41;101663.50;;;5.47;100.00
54948;BME280;41113;41.882;12.530;2023-02-04T06:09:07;101665.78;;;5.38;100.00
54948;BME280;41113;41.882;12.530;2023-02-04T06:11:32;101650.75;;;5.54;100.00
54948;BME280;41113;41.882;12.530;2023-02-04T06:13:58;101649.03;;;5.53;100.00
54948;BME280;41113;41.882;12.530;2023-02-04T06:16:23;101652.22;;;5.42;100.00
54948;BME280;41113;41.882;12.530;2023-02-04T06:18:49;101656.53;;;5.45;100.00
54948;BME280;41113;41.882;12.530;2023-02-04T06:21:15;101643.22;;;5.45;100.00
54948;BME280;41113;41.882;12.530;2023-02-04T06:23:40;101642.09;;;5.49;100.00
54948;BME280;41113;41.882;12.530;2023-02-04T06:26:05;101651.03;;;5.48;100.00
54948;BME280;41113;41.882;12.530;2023-02-04T06:28:31;101640.63;;;5.43;100.00
54948;BME280;41113;41.882;12.530;2023-02-04T06:30:57;101634.75;;;5.37;100.00
54948;BME280;41113;41.882;12.530;2023-02-04T06:33:22;101638.97;;;5.41;100.00
54948;BME280;41113;41.882;12.530;2023-02-04T06:35:49;101630.75;;;5.45;100.00
54948;BME280;41113;41.882;12.530;2023-02-04T06:38:14;101633.50;;;5.44;100.00
54948;BME280;41113;41.882;12.530;2023-02-04T06:40:40;101638.53;;;5.32;100.00
54948;BME280;41113;41.882;12.530;2023-02-04T06:43:06;101634.59;;;5.40;100.00
54948;BME280;41113;41.882;12.530;2023-02-04T06:45:31;101637.97;;;5.43;100.00
54948;BME280;41113;41.882;12.530;2023-02-04T06:47:56;101635.53;;;5.39;100.00
54948;BME280;41113;41.882;12.530;2023-02-04T06:50:22;101645.81;;;5.29;100.00
54948;BME280;41113;41.882;12.530;2023-02-04T06:52:47;101653.72;;;5.30;100.00
54948;BME280;41113;41.882;12.530;2023-02-04T06:55:13;101653.88;;;5.10;100.00
54948;BME280;41113;41.882;12.530;2023-02-04T06:57:39;101642.13;;;5.14;100.00
54948;BME280;41113;41.882;12.530;2023-02-04T07:00:09;101649.81;;;5.03;100.00
54948;BME280;41113;41.882;12.530;2023-02-04T07:02:36;101649.03;;;5.01;100.00
54948;BME280;41113;41.882;12.530;2023-02-04T07:05:03;101638.28;;;5.03;100.00
54948;BME280;41113;41.882;12.530;2023-02-04T07:07:29;101639.47;;;4.97;100.00
54948;BME280;41113;41.882;12.530;2023-02-04T07:09:54;101640.41;;;4.96;100.00
54948;BME280;41113;41.882;12.530;2023-02-04T07:12:20;101635.09;;;4.96;100.00
54948;BME280;41113;41.882;12.530;2023-02-04T07:14:45;101630.38;;;5.01;100.00
54948;BME280;41113;41.882;12.530;2023-02-04T07:17:11;101631.94;;;4.88;100.00
54948;BME280;41113;41.882;12.530;2023-02-04T07:19:36;101622.00;;;4.91;100.00
54948;BME280;41113;41.882;12.530;2023-02-04T07:22:02;101626.13;;;4.80;100.00
54948;BME280;41113;41.882;12.530;2023-02-04T07:24:28;101626.13;;;4.80;100.00
54948;BME280;41113;41.882;12.530;2023-02-04T07:26:53;101629.56;;;4.82;100.00
54948;BME280;41113;41.882;12.530;2023-02-04T07:29:19;101626.13;;;4.80;100.00
54948;BME280;41113;41.882;12.530;2023-02-04T07:31:45;101612.84;;;4.97;100.00
54948;BME280;41113;41.882;12.530;2023-02-04T07:34:12;101612.53;;;5.03;100.00
54948;BME280;41113;41.882;12.530;2023-02-04T07:36:38;101616.69;;;5.09;100.00
54948;BME280;41113;41.882;12.530;2023-02-04T07:39:03;101622.25;;;5.21;100.00
54948;BME280;41113;41.882;12.530;2023-02-04T07:41:28;101605.00;;;5.28;100.00
54948;BME280;41113;41.882;12.530;2023-02-04T07:43:54;101600.22;;;5.18;100.00
54948;BME280;41113;41.882;12.530;2023-02-04T07:46:19;101607.75;;;5.27;100.00
54948;BME280;41113;41.882;12.530;2023-02-04T07:48:45;101607.84;;;5.25;100.00
54948;BME280;41113;41.882;12.530;2023-02-04T07:51:10;101613.84;;;5.29;100.00
54948;BME280;41113;41.882;12.530;2023-02-04T07:53:36;101613.63;;;5.16;100.00
54948;BME280;41113;41.882;12.530;2023-02-04T07:56:01;101608.97;;;5.20;100.00
54948;BME280;41113;41.882;12.530;2023-02-04T07:58:26;101611.44;;;5.24;100.00
54948;BME280;41113;41.882;12.530;2023-02-04T08:00:52;101607.75;;;5.27;100.00
54948;BME280;41113;41.882;12.530;2023-02-04T08:03:17;101613.16;;;5.25;100.00
54948;BME280;41113;41.882;12.530;2023-02-04T08:05:43;101600.28;;;5.34;100.00
54948;BME280;41113;41.882;12.530;2023-02-04T08:08:08;101612.78;;;5.66;100.00
54948;BME280;41113;41.882;12.530;2023-02-04T08:10:33;101613.06;;;5.77;100.00
54948;BME280;41113;41.882;12.530;2023-02-04T08:12:58;101616.22;;;5.68;100.00
54948;BME280;41113;41.882;12.530;2023-02-04T08:15:24;101616.50;;;5.79;100.00
54948;BME280;41113;41.882;12.530;2023-02-04T08:17:49;101626.03;;;5.83;100.00
54948;BME280;41113;41.882;12.530;2023-02-04T08:20:15;101626.03;;;5.83;100.00
54948;BME280;41113;41.882;12.530;2023-02-04T08:22:42;101622.69;;;5.97;100.00
54948;BME280;41113;41.882;12.530;2023-02-04T08:25:08;101618.19;;;5.98;100.00
54948;BME280;41113;41.882;12.530;2023-02-04T08:27:35;101625.75;;;5.89;100.00
54948;BME280;41113;41.882;12.530;2023-02-04T08:30:00;101634.69;;;5.88;100.00
54948;BME280;41113;41.882;12.530;2023-02-04T08:32:26;101628.25;;;5.92;100.00
54948;BME280;41113;41.882;12.530;2023-02-04T08:34:53;101621.97;;;5.93;100.00
54948;BME280;41113;41.882;12.530;2023-02-04T08:37:18;101623.53;;;5.98;100.00
54948;BME280;41113;41.882;12.530;2023-02-04T08:39:44;101632.31;;;6.00;100.00
54948;BME280;41113;41.882;12.530;2023-02-04T08:42:11;101634.19;;;5.98;100.00
54948;BME280;41113;41.882;12.530;2023-02-04T08:44:37;101631.38;;;6.01;100.00
54948;BME280;41113;41.882;12.530;2023-02-04T08:47:02;101630.69;;;6.13;99.91
54948;BME280;41113;41.882;12.530;2023-02-04T08:49:28;101634.19;;;6.13;99.73
54948;BME280;41113;41.882;12.530;2023-02-04T08:51:53;101638.38;;;6.19;99.75
54948;BME280;41113;41.882;12.530;2023-02-04T08:54:18;101636.22;;;6.26;99.79
54948;BME280;41113;41.882;12.530;2023-02-04T08:56:44;101635.44;;;6.39;98.70
54948;BME280;41113;41.882;12.530;2023-02-04T08:59:09;101637.31;;;6.37;98.40
54948;BME280;41113;41.882;12.530;2023-02-04T09:01:35;101633.72;;;6.38;97.66
54948;BME280;41113;41.882;12.530;2023-02-04T09:04:00;101636.63;;;6.34;97.78
54948;BME280;41113;41.882;12.530;2023-02-04T09:06:25;101633.34;;;6.44;98.19
54948;BME280;41113;41.882;12.530;2023-02-04T09:08:51;101617.84;;;6.67;97.91
54948;BME280;41113;41.882;12.530;2023-02-04T09:11:16;101608.22;;;6.64;96.93
54948;BME280;41113;41.882;12.530;2023-02-04T09:13:41;101609.03;;;6.80;96.97
54948;BME280;41113;41.882;12.530;2023-02-04T09:16:07;101614.16;;;6.99;96.21
54948;BME280;41113;41.882;12.530;2023-02-04T09:18:32;101615.16;;;7.12;95.12
54948;BME280;41113;41.882;12.530;2023-02-04T09:20:58;101602.81;;;7.40;95.09
54948;BME280;41113;41.882;12.530;2023-02-04T09:23:24;101594.34;;;7.62;94.53
54948;BME280;41113;41.882;12.530;2023-02-04T09:25:50;101588.41;;;7.85;93.53
54948;BME280;41113;41.882;12.530;2023-02-04T09:28:15;101581.03;;;8.03;91.95
54948;BME280;41113;41.882;12.530;2023-02-04T09:30:43;101576.88;;;8.26;91.48
54948;BME280;41113;41.882;12.530;2023-02-04T09:33:10;101561.44;;;8.43;90.84
54948;BME280;41113;41.882;12.530;2023-02-04T09:35:36;101545.16;;;8.61;89.45
54948;BME280;41113;41.882;12.530;2023-02-04T09:38:03;101554.41;;;8.82;89.26
54948;BME280;41113;41.882;12.530;2023-02-04T09:40:33;101562.84;;;9.16;88.58
54948;BME280;41113;41.882;12.530;2023-02-04T09:43:02;101568.50;;;9.36;86.63
54948;BME280;41113;41.882;12.530;2023-02-04T09:45:30;101574.22;;;9.57;83.26
54948;BME280;41113;41.882;12.530;2023-02-04T09:47:58;101586.00;;;9.80;84.38
54948;BME280;41113;41.882;12.530;2023-02-04T09:50:26;101581.22;;;9.96;82.93
54948;BME280;41113;41.882;12.530;2023-02-04T09:52:54;101583.47;;;10.15;82.97
54948;BME280;41113;41.882;12.530;2023-02-04T09:55:26;101577.00;;;10.31;80.76
54948;BME280;41113;41.882;12.530;2023-02-04T09:57:52;101577.06;;;10.42;81.75
54948;BME280;41113;41.882;12.530;2023-02-04T10:00:23;101580.50;;;10.44;80.10
54948;BME280;41113;41.882;12.530;2023-02-04T10:02:49;101581.28;;;10.57;80.72
54948;BME280;41113;41.882;12.530;2023-02-04T10:05:23;101592.81;;;10.70;79.66
54948;BME280;41113;41.882;12.530;2023-02-04T10:07:49;101579.69;;;10.78;79.99
54948;BME280;41113;41.882;12.530;2023-02-04T10:10:22;101576.31;;;10.87;78.79
54948;BME280;41113;41.882;12.530;2023-02-04T10:12:52;101582.41;;;10.89;78.40
54948;BME280;41113;41.882;12.530;2023-02-04T10:15:18;101571.19;;;10.96;77.64
54948;BME280;41113;41.882;12.530;2023-02-04T10:17:45;101572.66;;;11.00;75.50
54948;BME280;41113;41.882;12.530;2023-02-04T10:20:20;101569.63;;;11.04;75.62
54948;BME280;41113;41.882;12.530;2023-02-04T10:22:46;101562.47;;;11.16;76.11
54948;BME280;41113;41.882;12.530;2023-02-04T10:25:14;101554.53;;;11.26;76.71
54948;BME280;41113;41.882;12.530;2023-02-04T10:27:50;101554.41;;;11.27;74.48
54948;BME280;41113;41.882;12.530;2023-02-04T10:30:21;101550.03;;;11.37;75.54
54948;BME280;41113;41.882;12.530;2023-02-04T10:32:47;101547.72;;;11.44;75.42
54948;BME280;41113;41.882;12.530;2023-02-04T10:35:14;101541.75;;;11.51;75.49
54948;BME280;41113;41.882;12.530;2023-02-04T10:37:40;101530.47;;;11.58;75.03
54948;BME280;41113;41.882;12.530;2023-02-04T10:40:24;101524.38;;;11.56;73.67
54948;BME280;41113;41.882;12.530;2023-02-04T10:42:50;101527.66;;;11.59;74.22
54948;BME280;41113;41.882;12.530;2023-02-04T10:45:25;101528.03;;;11.66;74.78
54948;BME280;41113;41.882;12.530;2023-02-04T10:47:51;101529.03;;;11.87;75.23
54948;BME280;41113;41.882;12.530;2023-02-04T10:50:19;101522.41;;;12.02;74.39
54948;BME280;41113;41.882;12.530;2023-02-04T10:52:48;101510.91;;;12.11;74.75
54948;BME280;41113;41.882;12.530;2023-02-04T10:55:24;101521.44;;;12.03;70.84
54948;BME280;41113;41.882;12.530;2023-02-04T10:57:51;101509.91;;;12.12;73.84
54948;BME280;41113;41.882;12.530;2023-02-04T11:00:21;101512.06;;;12.30;74.52
54948;BME280;41113;41.882;12.530;2023-02-04T11:02:57;101508.38;;;12.31;70.37
54948;BME280;41113;41.882;12.530;2023-02-04T11:05:29;101505.69;;;12.31;71.40
54948;BME280;41113;41.882;12.530;2023-02-04T11:07:55;101490.13;;;12.34;71.48
54948;BME280;41113;41.882;12.530;2023-02-04T11:10:23;101491.22;;;12.32;71.83
54948;BME280;41113;41.882;12.530;2023-02-04T11:15:49;101481.81;;;12.37;70.74
54948;BME280;41113;41.882;12.530;2023-02-04T11:20:45;101454.94;;;12.47;71.86
54948;BME280;41113;41.882;12.530;2023-02-04T11:25:40;101450.53;;;12.46;69.83
54948;BME280;41113;41.882;12.530;2023-02-04T11:28:24;101451.78;;;12.42;68.96
54948;BME280;41113;41.882;12.530;2023-02-04T11:31:00;101450.34;;;12.38;68.50
54948;BME280;41113;41.882;12.530;2023-02-04T11:33:38;101450.56;;;12.35;69.17
54948;BME280;41113;41.882;12.530;2023-02-04T11:36:07;101430.75;;;12.36;70.53
54948;BME280;41113;41.882;12.530;2023-02-04T11:38:33;101424.50;;;12.35;70.41
54948;BME280;41113;41.882;12.530;2023-02-04T11:40:59;101419.50;;;12.31;70.82
54948;BME280;41113;41.882;12.530;2023-02-04T11:43:26;101425.00;;;12.29;69.25
54948;BME280;41113;41.882;12.530;2023-02-04T11:46:11;101426.00;;;12.28;68.00
54948;BME280;41113;41.882;12.530;2023-02-04T11:48:37;101424.59;;;12.45;69.98
54948;BME280;41113;41.882;12.530;2023-02-04T11:51:11;101432.66;;;12.45;69.46
54948;BME280;41113;41.882;12.530;2023-02-04T11:53:37;101432.41;;;12.48;69.55
54948;BME280;41113;41.882;12.530;2023-02-04T11:56:03;101426.88;;;12.50;69.24
54948;BME280;41113;41.882;12.530;2023-02-04T11:58:37;101424.31;;;12.48;69.44
54948;BME280;41113;41.882;12.530;2023-02-04T12:01:03;101418.34;;;12.44;68.70
54948;BME280;41113;41.882;12.530;2023-02-04T12:03:30;101413.34;;;12.40;68.53
54948;BME280;41113;41.882;12.530;2023-02-04T12:05:58;101412.38;;;12.41;69.60
54948;BME280;41113;41.882;12.530;2023-02-04T12:08:32;101407.25;;;12.38;68.42
54948;BME280;41113;41.882;12.530;2023-02-04T12:11:08;101400.16;;;12.37;67.85
54948;BME280;41113;41.882;12.530;2023-02-04T12:13:50;101395.47;;;12.39;69.25
54948;BME280;41113;41.882;12.530;2023-02-04T12:16:17;101391.06;;;12.38;67.09
54948;BME280;41113;41.882;12.530;2023-02-04T12:18:43;101395.47;;;12.39;68.20
54948;BME280;41113;41.882;12.530;2023-02-04T12:21:08;101387.41;;;12.39;68.30
54948;BME280;41113;41.882;12.530;2023-02-04T12:23:34;101380.03;;;12.41;67.24
54948;BME280;41113;41.882;12.530;2023-02-04T12:25:59;101371.75;;;12.54;66.15
54948;BME280;41113;41.882;12.530;2023-02-04T12:28:25;101369.63;;;12.57;67.27
54948;BME280;41113;41.882;12.530;2023-02-04T12:30:52;101380.41;;;12.57;67.86
54948;BME280;41113;41.882;12.530;2023-02-04T12:33:17;101365.94;;;12.58;67.19
54948;BME280;41113;41.882;12.530;2023-02-04T12:35:43;101365.69;;;12.61;66.55
54948;BME280;41113;41.882;12.530;2023-02-04T12:38:08;101361.50;;;12.68;66.61
54948;BME280;41113;41.882;12.530;2023-02-04T12:40:34;101369.81;;;12.65;66.74
54948;BME280;41113;41.882;12.530;2023-02-04T12:43:00;101365.69;;;12.61;65.79
54948;BME280;41113;41.882;12.530;2023-02-04T12:45:26;101356.75;;;12.61;66.79
54948;BME280;41113;41.882;12.530;2023-02-04T12:47:51;101350.25;;;12.63;65.89
54948;BME280;41113;41.882;12.530;2023-02-04T12:50:17;101348.75;;;12.70;65.42